Stena Hollandica — PFBL — position and weather

sailwx.info

Track history (hours):
 
Tides and Currents Weather Stations Pressure Air Temp Water Temp Dewpoint Dewpoint Depression Visibility Wind Speed Wind Dir Waves Ship Positions

Stena Hollandica

Operator: Stena Line BV

Last reported at 2010-May-17 17:28 UTC. Time now 2019-Jul-20 00:51 UTC.
Position N 55°34' E 012°42'.
Warning: this ship's position is years out of date!

Length 240 m; draft 0.56 m.

Type: Passenger vessel. MMSI: 245340000.

Date/timePositionNaut miles runAvg speedWind from/ knotsBaromVisibWave heightAir tempDewpointWater temp
2010-May-17 17:28N 55°34' E 012°42'6 9.9
2010-May-17 16:53N 55°40' E 012°41'1015.1
2010-May-17 16:15N 55°50' E 012°42'1118.1
2010-May-17 15:38N 56°01' E 012°38'218.2
2010-May-17 15:31N 56°03' E 012°38'29512.6
2010-May-16 16:07N 53°48' E 005°02'1619.9
2010-May-16 15:18N 53°34' E 004°49'1619.8
2010-May-16 14:29N 53°19' E 004°38'1919.8
2010-May-16 13:31N 53°02' E 004°23'2519.3
2010-May-16 12:14N 52°39' E 004°09'1519.4
2010-May-16 11:28N 52°24' E 004°04'2613.1
2010-May-16 09:28N 51°58' E 004°08'0 0.0
2010-May-16 08:13N 51°58' E 004°08'0 0.0
2010-May-16 06:56N 51°58' E 004°08'0 0.0
2010-May-16 06:31N 51°58' E 004°08'0 0.0
2010-May-16 05:28N 51°58' E 004°08'1515.7
2010-May-16 04:32N 51°58' E 003°44'1815.4
2010-May-16 03:23N 51°55' E 003°16'3415.4
2010-May-16 01:09N 51°51' E 002°20'1216.2
2010-May-16 00:23N 51°50' E 002°01'1413.7
2010-May-15 23:24N 51°51' E 001°39'1113.2
2010-May-15 22:32N 51°56' E 001°22'4 4.0
2010-May-15 21:28N 51°57' E 001°15'0 0.0
2010-May-15 20:33N 51°57' E 001°15'0 0.0
2010-May-15 19:32N 51°57' E 001°15'1 0.9
2010-May-15 18:32N 51°57' E 001°17'1312.7
2010-May-15 17:28N 52°02' E 001°37'1818.3
2010-May-15 16:31N 52°03' E 002°06'2919.7
2010-May-15 15:01N 52°04' E 002°53'1219.2
2010-May-15 14:22N 52°03' E 003°14'1619.1
2010-May-15 13:33N 52°03' E 003°39'1817.2
2010-May-15 12:29N 51°58' E 004°08'0 0.0
2010-May-15 10:52N 51°58' E 004°08'0 0.0
2010-May-15 10:06N 51°58' E 004°08'0 0.0
2010-May-15 09:35N 51°58' E 004°08'0 0.0
2010-May-15 09:08N 51°58' E 004°08'0 0.0
2010-May-15 08:13N 51°58' E 004°08'0 0.0
2010-May-15 06:23N 51°58' E 004°08'2 2.4
2010-May-15 05:22N 51°59' E 004°04'2116.3
2010-May-15 04:04N 51°56' E 003°30'1215.3
2010-May-15 03:17N 51°54' E 003°11'1315.7
2010-May-15 02:27N 51°52' E 002°50'3115.7
2010-May-15 00:29N 51°50' E 002°00'2614.5
2010-May-14 22:43N 51°55' E 001°20'3 4.8
2010-May-14 22:05N 51°57' E 001°15'0 0.0
2010-May-14 21:17N 51°57' E 001°15'0 0.0
2010-May-14 20:25N 51°57' E 001°15'0 0.0
2010-May-14 19:11N 51°57' E 001°15'10 8.7
2010-May-14 18:04N 51°57' E 001°31'1115.1
2010-May-14 17:19N 52°03' E 001°46'2619.6
2010-May-14 15:59N 52°03' E 002°29'3019.6
2010-May-14 14:27N 52°03' E 003°17'1818.0
2010-May-14 13:29N 52°04' E 003°46'1512.7
2010-May-14 12:19N 51°58' E 004°08'0 0.0
2010-May-14 11:24N 51°58' E 004°08'0 0.0
2010-May-14 10:29N 51°58' E 004°08'0 0.0
2010-May-14 09:31N 51°58' E 004°08'0 0.0
2010-May-14 07:52N 51°58' E 004°08'0 0.0
2010-May-14 07:24N 51°58' E 004°08'0 0.0
2010-May-14 06:19N 51°58' E 004°08'0 0.1
2010-May-14 05:33N 51°58' E 004°08'2315.9
2010-May-14 04:06N 51°57' E 003°30'5516.2
2010-May-14 00:43N 51°51' E 002°02'317.7
2010-May-14 00:33N 51°50' E 001°58'1916.9
2010-May-13 23:24N 51°56' E 001°28'8 7.1
2010-May-13 22:18N 51°57' E 001°15'0 0.0
2010-May-13 21:22N 51°57' E 001°15'0 0.0
2010-May-13 20:04N 51°57' E 001°15'0 0.0
2010-May-13 19:23N 51°57' E 001°15'9 7.9
2010-May-13 18:15N 51°57' E 001°30'1419.2
2010-May-13 17:30N 52°03' E 001°51'8418.9
2010-May-13 13:04N 51°59' E 004°06'1 2.1
2010-May-13 12:31N 51°58' E 004°08'0 0.0
2010-May-13 11:29N 51°58' E 004°08'0 0.0
2010-May-13 10:25N 51°58' E 004°08'0 0.0
2010-May-13 09:30N 51°58' E 004°08'0 0.0
2010-May-13 08:29N 51°58' E 004°08'0 0.0
2010-May-13 07:10N 51°58' E 004°08'0 0.0
2010-May-13 06:31N 51°58' E 004°08'1 0.5
2010-May-13 05:30N 51°59' E 004°07'2916.4
2010-May-13 03:44N 51°56' E 003°21'6016.1
2010-May-13 00:00N 51°49' E 001°44'1614.8
2010-May-12 22:56N 51°55' E 001°20'3 7.4
2010-May-12 22:29N 51°57' E 001°15'0 0.0
2010-May-12 21:20N 51°57' E 001°15'0 0.0
2010-May-12 20:31N 51°57' E 001°15'0 0.2
2010-May-12 19:03N 51°57' E 001°16'610.4
2010-May-12 18:27N 51°56' E 001°25'10012.1
2010-May-12 10:08N 51°58' E 004°08'0 0.0
2010-May-12 09:33N 51°58' E 004°08'0 0.0
2010-May-12 08:27N 51°58' E 004°08'9610.7
2010-May-11 23:27N 51°55' E 001°32'8 1.7
2010-May-11 18:26N 51°56' E 001°19'1617.0
2010-May-11 17:29N 52°02' E 001°43'6319.7
2010-May-11 14:18N 52°02' E 003°25'2018.9
2010-May-11 13:13N 52°01' E 003°58'7 7.5
2010-May-11 12:18N 51°58' E 004°08'0 0.0
2010-May-11 11:33N 51°58' E 004°08'0 0.0
2010-May-11 10:29N 51°58' E 004°08'0 0.0
2010-May-11 09:24N 51°58' E 004°08'0 0.0
2010-May-11 08:23N 51°58' E 004°08'0 0.0
2010-May-11 07:33N 51°58' E 004°08'0 0.0
2010-May-11 06:10N 51°58' E 004°08'8 7.4
2010-May-11 05:08N 51°60' E 003°56'1117.0
2010-May-11 04:28N 51°58' E 003°38'7015.7
2010-May-10 23:59N 51°50' E 001°45'716.6
2010-May-10 23:33N 51°52' E 001°34'1312.3
2010-May-10 22:32N 51°57' E 001°15'0 0.1
2010-May-10 21:32N 51°57' E 001°15'0 0.0
2010-May-10 20:02N 51°57' E 001°15'2 1.5
2010-May-10 18:54N 51°57' E 001°18'3 8.9
2010-May-10 18:32N 51°56' E 001°23'7 7.5
2010-May-10 17:33N 51°59' E 001°34'7419.7
2010-May-10 13:48N 52°03' E 003°34'719.6
2010-May-10 13:27N 52°02' E 003°45'1512.4
2010-May-10 12:16N 51°58' E 004°08'0 0.0
2010-May-10 11:30N 51°58' E 004°08'0 0.0
2010-May-10 10:30N 51°58' E 004°08'0 0.0
2010-May-10 09:07N 51°58' E 004°08'0 0.0
2010-May-10 06:35N 51°58' E 004°08'0 0.0
2010-May-10 06:14N 51°58' E 004°08'3 3.4
2010-May-10 05:18N 51°59' E 004°03'1916.2
2010-May-10 04:09N 51°57' E 003°33'6415.1
2010-May-09 23:54N 51°48' E 001°51'615.7
2010-May-09 23:30N 51°51' E 001°41'1313.2
2010-May-09 22:30N 51°56' E 001°21'4 4.0
2010-May-09 21:32N 51°57' E 001°15'0 0.0
2010-May-09 20:21N 51°57' E 001°15'0 0.0
2010-May-09 19:29N 51°57' E 001°15'0 0.2
2010-May-09 18:28N 51°57' E 001°15'1111.7
2010-May-09 17:32N 51°58' E 001°33'4318.6
2010-May-09 15:14N 52°03' E 002°41'3019.6
2010-May-09 13:41N 52°03' E 003°31'1219.6
2010-May-09 13:04N 52°02' E 003°51'1018.1
2010-May-09 12:31N 51°59' E 004°06'1 1.4
2010-May-09 11:33N 51°58' E 004°08'0 0.0
2010-May-09 10:12N 51°58' E 004°08'0 0.0
2010-May-09 09:26N 51°58' E 004°08'0 0.0
2010-May-09 08:23N 51°58' E 004°08'0 0.0
2010-May-09 06:58N 51°58' E 004°08'0 0.0
2010-May-09 05:56N 51°58' E 004°08'8 9.1
2010-May-09 05:03N 51°60' E 003°55'916.5
2010-May-09 04:29N 51°58' E 003°40'1513.9
2010-May-09 03:24N 51°55' E 003°16'5314.9
2010-May-08 23:49N 51°48' E 001°51'1216.1
2010-May-08 23:05N 51°53' E 001°33'713.8
2010-May-08 22:32N 51°56' E 001°22'4 4.0
2010-May-08 21:29N 51°57' E 001°15'0 0.0
2010-May-08 20:33N 51°57' E 001°15'0 0.0
2010-May-08 19:24N 51°57' E 001°15'2 2.4
2010-May-08 18:27N 51°57' E 001°19'1413.6
2010-May-08 17:24N 52°03' E 001°40'7520.0
2010-May-08 13:40N 52°04' E 003°41'620.0
2010-May-08 13:23N 52°03' E 003°50'1211.5
2010-May-08 12:21N 51°58' E 004°08'0 0.0
2010-May-08 11:15N 51°58' E 004°08'0 0.0
2010-May-08 10:14N 51°58' E 004°08'0 0.0
2010-May-08 09:22N 51°58' E 004°08'0 0.0
2010-May-08 08:24N 51°58' E 004°08'0 0.0
2010-May-08 07:31N 51°58' E 004°08'0 0.0
2010-May-08 06:25N 51°58' E 004°08'0 0.6
2010-May-08 05:32N 51°59' E 004°07'2015.7
2010-May-08 04:17N 51°58' E 003°35'  
Track history (hours):
 
Tides and Currents Weather Stations Pressure Air Temp Water Temp Dewpoint Dewpoint Depression Visibility Wind Speed Wind Dir Waves Ship Positions

Stena Hollandica

Operator: Stena Line BV

Last reported at 2010-May-17 17:28 UTC. Time now 2019-Jul-20 00:51 UTC.
Position N 55°34' E 012°42'.
Warning: this ship's position is years out of date!

Length 240 m; draft 0.56 m.

Type: Passenger vessel. MMSI: 245340000.

Date/timePositionNaut miles runAvg speedWind from/ knotsBaromVisibWave heightAir tempDewpointWater temp
2010-May-17 17:28N 55°34' E 012°42'6 9.9
2010-May-17 16:53N 55°40' E 012°41'1015.1
2010-May-17 16:15N 55°50' E 012°42'1118.1
2010-May-17 15:38N 56°01' E 012°38'218.2
2010-May-17 15:31N 56°03' E 012°38'29512.6
2010-May-16 16:07N 53°48' E 005°02'1619.9
2010-May-16 15:18N 53°34' E 004°49'1619.8
2010-May-16 14:29N 53°19' E 004°38'1919.8
2010-May-16 13:31N 53°02' E 004°23'2519.3
2010-May-16 12:14N 52°39' E 004°09'1519.4
2010-May-16 11:28N 52°24' E 004°04'2613.1
2010-May-16 09:28N 51°58' E 004°08'0 0.0
2010-May-16 08:13N 51°58' E 004°08'0 0.0
2010-May-16 06:56N 51°58' E 004°08'0 0.0
2010-May-16 06:31N 51°58' E 004°08'0 0.0
2010-May-16 05:28N 51°58' E 004°08'1515.7
2010-May-16 04:32N 51°58' E 003°44'1815.4
2010-May-16 03:23N 51°55' E 003°16'3415.4
2010-May-16 01:09N 51°51' E 002°20'1216.2
2010-May-16 00:23N 51°50' E 002°01'1413.7
2010-May-15 23:24N 51°51' E 001°39'1113.2
2010-May-15 22:32N 51°56' E 001°22'4 4.0
2010-May-15 21:28N 51°57' E 001°15'0 0.0
2010-May-15 20:33N 51°57' E 001°15'0 0.0
2010-May-15 19:32N 51°57' E 001°15'1 0.9
2010-May-15 18:32N 51°57' E 001°17'1312.7
2010-May-15 17:28N 52°02' E 001°37'1818.3
2010-May-15 16:31N 52°03' E 002°06'2919.7
2010-May-15 15:01N 52°04' E 002°53'1219.2
2010-May-15 14:22N 52°03' E 003°14'1619.1
2010-May-15 13:33N 52°03' E 003°39'1817.2
2010-May-15 12:29N 51°58' E 004°08'0 0.0
2010-May-15 10:52N 51°58' E 004°08'0 0.0
2010-May-15 10:06N 51°58' E 004°08'0 0.0
2010-May-15 09:35N 51°58' E 004°08'0 0.0
2010-May-15 09:08N 51°58' E 004°08'0 0.0
2010-May-15 08:13N 51°58' E 004°08'0 0.0
2010-May-15 06:23N 51°58' E 004°08'2 2.4
2010-May-15 05:22N 51°59' E 004°04'2116.3
2010-May-15 04:04N 51°56' E 003°30'1215.3
2010-May-15 03:17N 51°54' E 003°11'1315.7
2010-May-15 02:27N 51°52' E 002°50'3115.7
2010-May-15 00:29N 51°50' E 002°00'2614.5
2010-May-14 22:43N 51°55' E 001°20'3 4.8
2010-May-14 22:05N 51°57' E 001°15'0 0.0
2010-May-14 21:17N 51°57' E 001°15'0 0.0
2010-May-14 20:25N 51°57' E 001°15'0 0.0
2010-May-14 19:11N 51°57' E 001°15'10 8.7
2010-May-14 18:04N 51°57' E 001°31'1115.1
2010-May-14 17:19N 52°03' E 001°46'2619.6
2010-May-14 15:59N 52°03' E 002°29'3019.6
2010-May-14 14:27N 52°03' E 003°17'1818.0
2010-May-14 13:29N 52°04' E 003°46'1512.7
2010-May-14 12:19N 51°58' E 004°08'0 0.0
2010-May-14 11:24N 51°58' E 004°08'0 0.0
2010-May-14 10:29N 51°58' E 004°08'0 0.0
2010-May-14 09:31N 51°58' E 004°08'0 0.0
2010-May-14 07:52N 51°58' E 004°08'0 0.0
2010-May-14 07:24N 51°58' E 004°08'0 0.0
2010-May-14 06:19N 51°58' E 004°08'0 0.1
2010-May-14 05:33N 51°58' E 004°08'2315.9
2010-May-14 04:06N 51°57' E 003°30'5516.2
2010-May-14 00:43N 51°51' E 002°02'317.7
2010-May-14 00:33N 51°50' E 001°58'1916.9
2010-May-13 23:24N 51°56' E 001°28'8 7.1
2010-May-13 22:18N 51°57' E 001°15'0 0.0
2010-May-13 21:22N 51°57' E 001°15'0 0.0
2010-May-13 20:04N 51°57' E 001°15'0 0.0
2010-May-13 19:23N 51°57' E 001°15'9 7.9
2010-May-13 18:15N 51°57' E 001°30'1419.2
2010-May-13 17:30N 52°03' E 001°51'8418.9
2010-May-13 13:04N 51°59' E 004°06'1 2.1
2010-May-13 12:31N 51°58' E 004°08'0 0.0
2010-May-13 11:29N 51°58' E 004°08'0 0.0
2010-May-13 10:25N 51°58' E 004°08'0 0.0
2010-May-13 09:30N 51°58' E 004°08'0 0.0
2010-May-13 08:29N 51°58' E 004°08'0 0.0
2010-May-13 07:10N 51°58' E 004°08'0 0.0
2010-May-13 06:31N 51°58' E 004°08'1 0.5
2010-May-13 05:30N 51°59' E 004°07'2916.4
2010-May-13 03:44N 51°56' E 003°21'6016.1
2010-May-13 00:00N 51°49' E 001°44'1614.8
2010-May-12 22:56N 51°55' E 001°20'3 7.4
2010-May-12 22:29N 51°57' E 001°15'0 0.0
2010-May-12 21:20N 51°57' E 001°15'0 0.0
2010-May-12 20:31N 51°57' E 001°15'0 0.2
2010-May-12 19:03N 51°57' E 001°16'610.4
2010-May-12 18:27N 51°56' E 001°25'10012.1
2010-May-12 10:08N 51°58' E 004°08'0 0.0
2010-May-12 09:33N 51°58' E 004°08'0 0.0
2010-May-12 08:27N 51°58' E 004°08'9610.7
2010-May-11 23:27N 51°55' E 001°32'8 1.7
2010-May-11 18:26N 51°56' E 001°19'1617.0
2010-May-11 17:29N 52°02' E 001°43'6319.7
2010-May-11 14:18N 52°02' E 003°25'2018.9
2010-May-11 13:13N 52°01' E 003°58'7 7.5
2010-May-11 12:18N 51°58' E 004°08'0 0.0
2010-May-11 11:33N 51°58' E 004°08'0 0.0
2010-May-11 10:29N 51°58' E 004°08'0 0.0
2010-May-11 09:24N 51°58' E 004°08'0 0.0
2010-May-11 08:23N 51°58' E 004°08'0 0.0
2010-May-11 07:33N 51°58' E 004°08'0 0.0
2010-May-11 06:10N 51°58' E 004°08'8 7.4
2010-May-11 05:08N 51°60' E 003°56'1117.0
2010-May-11 04:28N 51°58' E 003°38'7015.7
2010-May-10 23:59N 51°50' E 001°45'716.6
2010-May-10 23:33N 51°52' E 001°34'1312.3
2010-May-10 22:32N 51°57' E 001°15'0 0.1
2010-May-10 21:32N 51°57' E 001°15'0 0.0
2010-May-10 20:02N 51°57' E 001°15'2 1.5
2010-May-10 18:54N 51°57' E 001°18'3 8.9
2010-May-10 18:32N 51°56' E 001°23'7 7.5
2010-May-10 17:33N 51°59' E 001°34'7419.7
2010-May-10 13:48N 52°03' E 003°34'719.6
2010-May-10 13:27N 52°02' E 003°45'1512.4
2010-May-10 12:16N 51°58' E 004°08'0 0.0
2010-May-10 11:30N 51°58' E 004°08'0 0.0
2010-May-10 10:30N 51°58' E 004°08'0 0.0
2010-May-10 09:07N 51°58' E 004°08'0 0.0
2010-May-10 06:35N 51°58' E 004°08'0 0.0
2010-May-10 06:14N 51°58' E 004°08'3 3.4
2010-May-10 05:18N 51°59' E 004°03'1916.2
2010-May-10 04:09N 51°57' E 003°33'6415.1
2010-May-09 23:54N 51°48' E 001°51'615.7
2010-May-09 23:30N 51°51' E 001°41'1313.2
2010-May-09 22:30N 51°56' E 001°21'4 4.0
2010-May-09 21:32N 51°57' E 001°15'0 0.0
2010-May-09 20:21N 51°57' E 001°15'0 0.0
2010-May-09 19:29N 51°57' E 001°15'0 0.2
2010-May-09 18:28N 51°57' E 001°15'1111.7
2010-May-09 17:32N 51°58' E 001°33'4318.6
2010-May-09 15:14N 52°03' E 002°41'3019.6
2010-May-09 13:41N 52°03' E 003°31'1219.6
2010-May-09 13:04N 52°02' E 003°51'1018.1
2010-May-09 12:31N 51°59' E 004°06'1 1.4
2010-May-09 11:33N 51°58' E 004°08'0 0.0
2010-May-09 10:12N 51°58' E 004°08'0 0.0
2010-May-09 09:26N 51°58' E 004°08'0 0.0
2010-May-09 08:23N 51°58' E 004°08'0 0.0
2010-May-09 06:58N 51°58' E 004°08'0 0.0
2010-May-09 05:56N 51°58' E 004°08'8 9.1
2010-May-09 05:03N 51°60' E 003°55'916.5
2010-May-09 04:29N 51°58' E 003°40'1513.9
2010-May-09 03:24N 51°55' E 003°16'5314.9
2010-May-08 23:49N 51°48' E 001°51'1216.1
2010-May-08 23:05N 51°53' E 001°33'713.8
2010-May-08 22:32N 51°56' E 001°22'4 4.0
2010-May-08 21:29N 51°57' E 001°15'0 0.0
2010-May-08 20:33N 51°57' E 001°15'0 0.0
2010-May-08 19:24N 51°57' E 001°15'2 2.4
2010-May-08 18:27N 51°57' E 001°19'1413.6
2010-May-08 17:24N 52°03' E 001°40'7520.0
2010-May-08 13:40N 52°04' E 003°41'620.0
2010-May-08 13:23N 52°03' E 003°50'1211.5
2010-May-08 12:21N 51°58' E 004°08'0 0.0
2010-May-08 11:15N 51°58' E 004°08'0 0.0
2010-May-08 10:14N 51°58' E 004°08'0 0.0
2010-May-08 09:22N 51°58' E 004°08'0 0.0
2010-May-08 08:24N 51°58' E 004°08'0 0.0
2010-May-08 07:31N 51°58' E 004°08'0 0.0
2010-May-08 06:25N 51°58' E 004°08'0 0.6
2010-May-08 05:32N 51°59' E 004°07'2015.7
2010-May-08 04:17N 51°58' E 003°35'  

Dump ship's entire track history